Time,TemperatureF,DewpointF,PressureIn,WindDirection,WindDirectionDegrees,WindSpeedMPH,WindSpeedGustMPH,Humidity,HourlyPrecipIn,Conditions,Clouds,dailyrainin,SoftwareType,DateUTC
2013-06-25 00:00:00,66.6,65.1,29.93,West,265,2.4,2.4,95,0.00,,CLR,0.09,VWS V14.01,2013-06-25 04:00:00,
2013-06-25 00:01:00,66.6,65.1,29.93,West,264,0.0,4.7,95,0.00,,CLR,0.00,VWS V14.01,2013-06-25 04:01:00,
2013-06-25 00:02:00,66.6,65.1,29.93,SSW,200,1.2,2.4,95,0.00,,CLR,0.00,VWS V14.01,2013-06-25 04:02:00,
2013-06-25 00:07:00,66.6,65.1,29.93,SSW,202,0.0,0.0,95,0.00,,CLR,0.00,VWS V14.01,2013-06-25 04:07:00,
2013-06-25 00:12:00,66.4,64.9,29.93,SSW,202,1.2,1.2,95,0.00,,CLR,0.00,VWS V14.01,2013-06-25 04:12:00,
2013-06-25 00:17:00,66.4,64.9,29.94,West,271,0.0,0.0,95,0.00,,CLR,0.00,VWS V14.01,2013-06-25 04:17:00,
2013-06-25 00:22:00,66.4,64.9,29.94,West,271,0.0,0.0,95,0.00,,CLR,0.00,VWS V14.01,2013-06-25 04:22:00,
2013-06-25 00:27:00,66.4,64.9,29.94,SSW,211,1.2,1.2,95,0.00,,CLR,0.00,VWS V14.01,2013-06-25 04:27:00,
2013-06-25 00:32:00,66.4,64.9,29.95,SSW,211,1.2,3.5,95,0.00,,CLR,0.00,VWS V14.01,2013-06-25 04:32:00,
2013-06-25 00:37:00,66.4,64.9,29.95,SSW,211,0.0,2.4,95,0.00,,CLR,0.00,VWS V14.01,2013-06-25 04:37:00,
2013-06-25 00:42:00,66.4,64.9,29.95,SSW,211,2.4,2.4,95,0.00,,CLR,0.00,VWS V14.01,2013-06-25 04:42:00,
2013-06-25 00:47:00,66.4,64.9,29.95,WSW,244,0.0,0.0,95,0.00,,CLR,0.00,VWS V14.01,2013-06-25 04:47:00,
2013-06-25 00:52:00,66.4,65.2,29.95,WSW,247,1.2,3.5,96,0.00,,CLR,0.00,VWS V14.01,2013-06-25 04:52:00,
2013-06-25 00:57:00,66.3,65.1,29.95,SW,218,0.0,1.2,96,0.00,,CLR,0.00,VWS V14.01,2013-06-25 04:57:00,
2013-06-25 01:02:00,66.3,65.1,29.96,SW,217,0.0,0.0,96,0.00,,CLR,0.00,VWS V14.01,2013-06-25 05:02:00,
2013-06-25 01:07:00,66.3,65.1,29.96,SW,219,3.5,3.5,96,0.00,,CLR,0.00,VWS V14.01,2013-06-25 05:07:00,
2013-06-25 01:12:00,66.3,65.1,29.96,SW,219,0.0,0.0,96,0.00,,CLR,0.00,VWS V14.01,2013-06-25 05:12:00,
2013-06-25 01:17:00,66.3,65.1,29.96,SW,219,1.2,1.2,96,0.00,,CLR,0.00,VWS V14.01,2013-06-25 05:17:00,
2013-06-25 01:22:00,66.1,64.9,29.96,WNW,286,0.0,1.2,96,0.00,,CLR,0.00,VWS V14.01,2013-06-25 05:22:00,
2013-06-25 01:27:00,66.1,64.9,29.96,WNW,286,1.2,1.2,96,0.00,,CLR,0.00,VWS V14.01,2013-06-25 05:27:00,
2013-06-25 01:32:00,66.3,65.1,29.95,WNW,286,0.0,1.2,96,0.00,,CLR,0.00,VWS V14.01,2013-06-25 05:32:00,
2013-06-25 01:37:00,66.3,65.1,29.95,WNW,286,0.0,0.0,96,0.00,,CLR,0.00,VWS V14.01,2013-06-25 05:37:00,
2013-06-25 01:42:00,66.3,65.4,29.95,WSW,249,2.4,4.7,97,0.00,,CLR,0.00,VWS V14.01,2013-06-25 05:42:00,
2013-06-25 01:47:00,66.3,65.4,29.94,WSW,249,2.4,3.5,97,0.00,,CLR,0.00,VWS V14.01,2013-06-25 05:47:00,
2013-06-25 01:52:00,66.3,65.4,29.94,WSW,246,2.4,2.4,97,0.00,,CLR,0.00,VWS V14.01,2013-06-25 05:52:00,
2013-06-25 01:57:00,66.3,65.4,29.94,WSW,246,0.0,1.2,97,0.00,,CLR,0.00,VWS V14.01,2013-06-25 05:57:00,
2013-06-25 02:02:00,66.3,65.4,29.94,WSW,246,0.0,0.0,97,0.00,,CLR,0.00,VWS V14.01,2013-06-25 06:02:00,
2013-06-25 02:07:00,66.1,65.5,29.94,WSW,246,0.0,0.0,98,0.00,,CLR,0.00,VWS V14.01,2013-06-25 06:07:00,
2013-06-25 02:12:00,66.1,65.5,29.94,WSW,246,0.0,2.4,98,0.00,,CLR,0.00,VWS V14.01,2013-06-25 06:12:00,
2013-06-25 02:17:00,66.1,65.5,29.95,WSW,246,0.0,0.0,98,0.00,,CLR,0.00,VWS V14.01,2013-06-25 06:17:00,
2013-06-25 02:22:00,66.1,65.5,29.94,South,179,2.4,2.4,98,0.00,,CLR,0.00,VWS V14.01,2013-06-25 06:22:00,
2013-06-25 02:27:00,66.1,65.8,29.94,WSW,248,2.4,4.7,99,0.00,,CLR,0.00,VWS V14.01,2013-06-25 06:27:00,
2013-06-25 02:32:00,66.3,66.3,29.94,West,262,2.4,3.5,100,0.00,,CLR,0.00,VWS V14.01,2013-06-25 06:32:00,
2013-06-25 02:37:00,66.4,66.4,29.94,SW,232,0.0,1.2,100,0.01,,CLR,0.01,VWS V14.01,2013-06-25 06:37:00,
2013-06-25 02:42:00,66.6,66.6,29.94,West,264,0.0,2.4,100,0.02,,SCT065,0.02,VWS V14.01,2013-06-25 06:42:00,
2013-06-25 02:47:00,66.6,66.6,29.94,WSW,244,0.0,1.2,100,0.03,,SCT065,0.03,VWS V14.01,2013-06-25 06:47:00,
2013-06-25 02:52:00,66.8,66.8,29.95,WSW,244,0.0,0.0,100,0.03,,OVC040,0.03,VWS V14.01,2013-06-25 06:52:00,
2013-06-25 02:57:00,66.8,66.8,29.95,NW,311,0.0,1.2,100,0.03,,OVC040,0.03,VWS V14.01,2013-06-25 06:57:00,
2013-06-25 03:02:00,66.8,66.8,29.94,NW,311,0.0,0.0,100,0.03,,OVC040,0.03,VWS V14.01,2013-06-25 07:02:00,
2013-06-25 03:07:00,66.9,66.9,29.94,WNW,296,0.0,0.0,100,0.03,,OVC040,0.03,VWS V14.01,2013-06-25 07:07:00,
2013-06-25 03:12:00,67.1,67.1,29.94,SSW,197,0.0,2.4,100,0.03,,OVC040,0.03,VWS V14.01,2013-06-25 07:12:00,
2013-06-25 03:17:00,67.1,67.1,29.94,SSW,197,0.0,0.0,100,0.03,,OVC040,0.03,VWS V14.01,2013-06-25 07:17:00,
2013-06-25 03:22:00,67.1,67.1,29.93,SSW,197,0.0,0.0,100,0.03,,OVC040,0.03,VWS V14.01,2013-06-25 07:22:00,
2013-06-25 03:27:00,67.3,67.3,29.94,SSW,200,0.0,1.2,100,0.04,,OVC040,0.04,VWS V14.01,2013-06-25 07:27:00,